Time;durP1;ratioP1;P1;durP2;ratioP2;P2;SDS_P1;SDS_P2;PMS_P1;PMS_P2;Temp;Humidity;BMP_temperature;BMP_pressure;BME280_temperature;BME280_humidity;BME280_pressure;Samples;Min_cycle;Max_cycle;Signal;HPM_P1;HPM_P2
2022/01/08 00:00:22;;;;;;;34.43;17.40;;;2.60;99.90;;;;;;5021931;28;20226;-78
2022/01/08 00:02:48;;;;;;;32.17;18.23;;;2.60;99.90;;;;;;5010779;28;20288;-78
2022/01/08 00:05:16;;;;;;;36.10;18.10;;;2.60;99.90;;;;;;5013029;28;20253;-78
2022/01/08 00:07:43;;;;;;;32.37;16.47;;;2.70;99.90;;;;;;5032195;28;20617;-80
2022/01/08 00:10:11;;;;;;;29.27;16.00;;;2.70;99.90;;;;;;5010243;28;20302;-79
2022/01/08 00:12:38;;;;;;;34.13;17.37;;;2.70;99.90;;;;;;5033745;28;20222;-79
2022/01/08 00:15:07;;;;;;;35.00;15.50;;;2.60;99.90;;;;;;5041757;28;20608;-79
2022/01/08 00:17:34;;;;;;;29.73;17.07;;;2.60;99.90;;;;;;5034276;28;20248;-80
2022/01/08 00:20:06;;;;;;;31.70;17.17;;;2.60;99.90;;;;;;5036268;28;20261;-80
2022/01/08 00:22:33;;;;;;;32.27;17.40;;;2.60;99.90;;;;;;5025643;28;20290;-77
2022/01/08 00:25:00;;;;;;;35.13;18.00;;;2.60;99.90;;;;;;5036594;28;20334;-79
2022/01/08 00:27:26;;;;;;;35.80;18.13;;;2.60;99.90;;;;;;5015329;28;20705;-78
2022/01/08 00:29:53;;;;;;;36.17;18.07;;;2.60;99.90;;;;;;5035062;28;20294;-79
2022/01/08 00:32:20;;;;;;;39.80;19.10;;;2.60;99.90;;;;;;5037262;28;20633;-80
2022/01/08 00:34:47;;;;;;;33.47;17.00;;;2.60;99.90;;;;;;5037569;28;20218;-78
2022/01/08 00:37:14;;;;;;;36.23;18.63;;;2.60;99.90;;;;;;5025579;28;20299;-79
2022/01/08 00:39:41;;;;;;;33.93;17.40;;;2.60;99.90;;;;;;5027707;28;20313;-79
2022/01/08 00:42:08;;;;;;;33.20;17.83;;;2.60;99.90;;;;;;5040227;28;20297;-79
2022/01/08 00:44:34;;;;;;;41.43;16.67;;;2.60;99.90;;;;;;5031173;28;20731;-78
2022/01/08 00:47:02;;;;;;;29.77;16.30;;;2.50;99.90;;;;;;5031650;28;20202;-79
2022/01/08 00:49:29;;;;;;;31.77;17.10;;;2.50;99.90;;;;;;5038646;28;20209;-79
2022/01/08 00:51:56;;;;;;;34.70;17.47;;;2.40;99.90;;;;;;5029322;28;20237;-79
2022/01/08 00:54:23;;;;;;;40.33;18.00;;;2.30;99.90;;;;;;5026974;28;20603;-78
2022/01/08 00:56:50;;;;;;;36.23;18.90;;;2.20;99.90;;;;;;5035980;28;20349;-77
2022/01/08 00:59:17;;;;;;;39.30;17.73;;;2.20;99.90;;;;;;5041254;28;20751;-79
2022/01/08 01:01:44;;;;;;;33.67;17.63;;;2.10;99.90;;;;;;5038336;28;20217;-77
2022/01/08 01:04:11;;;;;;;34.33;19.00;;;2.00;99.90;;;;;;5041913;28;20304;-78
2022/01/08 01:06:37;;;;;;;35.20;17.73;;;1.90;99.90;;;;;;5045320;28;20211;-77
2022/01/08 01:09:06;;;;;;;39.50;19.20;;;1.90;99.90;;;;;;5025412;28;20695;-79
2022/01/08 01:11:33;;;;;;;36.37;19.33;;;1.90;99.90;;;;;;5028510;28;20661;-78
2022/01/08 01:14:01;;;;;;;41.20;20.27;;;1.80;99.90;;;;;;5037092;28;20257;-78
2022/01/08 01:16:29;;;;;;;43.17;20.20;;;1.80;99.90;;;;;;5040098;28;20237;-78
2022/01/08 01:18:59;;;;;;;39.87;19.93;;;1.70;99.90;;;;;;5036588;28;20256;-78
2022/01/08 01:21:25;;;;;;;38.00;19.77;;;1.70;99.90;;;;;;5035499;28;20235;-78
2022/01/08 01:23:53;;;;;;;41.80;21.00;;;1.70;99.90;;;;;;5033690;28;20209;-78
2022/01/08 01:26:24;;;;;;;35.97;18.63;;;1.70;99.90;;;;;;5032294;28;20274;-78
2022/01/08 01:47:36;;;;;;;45.03;23.63;;;1.50;99.90;;;;;;5025771;28;20202;-76
2022/01/08 01:50:06;;;;;;;52.03;24.03;;;1.50;99.90;;;;;;5029410;28;20214;-77
2022/01/08 01:52:34;;;;;;;48.20;24.77;;;1.50;99.90;;;;;;5030406;28;20229;-78
2022/01/08 01:55:01;;;;;;;46.67;23.83;;;1.50;99.90;;;;;;5028514;28;20722;-78
2022/01/08 01:57:29;;;;;;;47.43;23.83;;;1.40;99.90;;;;;;5027320;28;20699;-77
2022/01/08 01:59:58;;;;;;;47.67;24.53;;;1.50;99.90;;;;;;5026186;28;20292;-77
2022/01/08 02:02:25;;;;;;;45.83;23.13;;;1.40;99.90;;;;;;5029819;28;20229;-78
2022/01/08 02:04:52;;;;;;;47.07;25.20;;;1.50;99.90;;;;;;5023036;28;20226;-77
2022/01/08 02:07:18;;;;;;;44.20;23.83;;;1.40;99.90;;;;;;5013950;28;20559;-78
2022/01/08 02:09:45;;;;;;;43.17;24.37;;;1.40;99.90;;;;;;5025489;28;20654;-77
2022/01/08 02:12:18;;;;;;;45.33;23.73;;;1.40;99.90;;;;;;5033551;28;20198;-77
2022/01/08 02:14:45;;;;;;;43.97;24.00;;;1.40;99.90;;;;;;5016458;28;20222;-77
2022/01/08 02:17:12;;;;;;;48.60;24.37;;;1.40;99.90;;;;;;5027881;28;20723;-78
2022/01/08 02:19:40;;;;;;;47.90;24.77;;;1.40;99.90;;;;;;5022524;28;20320;-77
2022/01/08 02:22:10;;;;;;;48.70;24.87;;;1.30;99.90;;;;;;5023473;28;20673;-77
2022/01/08 02:24:37;;;;;;;52.40;24.33;;;1.30;99.90;;;;;;5020583;28;20660;-77
2022/01/08 02:27:05;;;;;;;48.93;25.43;;;1.30;99.90;;;;;;4999571;28;20692;-78
2022/01/08 02:29:32;;;;;;;49.87;26.30;;;1.30;99.90;;;;;;5020145;28;20294;-78
2022/01/08 02:32:04;;;;;;;54.10;26.77;;;1.30;99.90;;;;;;5025093;28;20201;-77
2022/01/08 02:34:31;;;;;;;48.37;25.57;;;1.30;99.90;;;;;;5021357;28;20253;-78
2022/01/08 02:37:00;;;;;;;52.87;25.03;;;1.30;99.90;;;;;;4999844;28;20203;-79
2022/01/08 02:39:27;;;;;;;54.60;24.93;;;1.20;99.90;;;;;;5023791;28;20282;-77
2022/01/08 02:41:58;;;;;;;42.63;23.60;;;1.30;99.90;;;;;;5021578;28;20241;-78
2022/01/08 02:44:26;;;;;;;46.50;24.03;;;1.30;99.90;;;;;;5049262;28;20236;-77
2022/01/08 02:46:54;;;;;;;46.17;24.80;;;1.30;99.90;;;;;;5018116;28;20284;-78
2022/01/08 02:49:23;;;;;;;45.77;25.13;;;1.40;99.90;;;;;;5040337;28;20657;-76
2022/01/08 02:51:51;;;;;;;40.27;22.23;;;1.30;99.90;;;;;;5010898;28;20248;-77
2022/01/08 02:54:18;;;;;;;53.60;25.13;;;1.30;99.90;;;;;;5044848;28;20205;-77
2022/01/08 02:56:47;;;;;;;45.97;22.83;;;1.30;99.90;;;;;;5041339;28;20291;-77
2022/01/08 02:59:15;;;;;;;49.20;23.70;;;1.30;99.90;;;;;;5040180;28;20288;-76
2022/01/08 03:01:42;;;;;;;41.90;24.03;;;1.30;99.90;;;;;;5008611;28;20213;-77
2022/01/08 03:04:10;;;;;;;44.23;23.53;;;1.30;99.90;;;;;;5045187;28;20417;-77
2022/01/08 03:06:37;;;;;;;51.67;25.10;;;1.30;99.90;;;;;;5003559;28;20206;-78
2022/01/08 03:09:05;;;;;;;46.07;23.97;;;1.30;99.90;;;;;;5037701;28;20229;-78
2022/01/08 03:11:32;;;;;;;45.77;24.40;;;1.30;99.90;;;;;;5030674;28;20618;-78
2022/01/08 03:13:59;;;;;;;47.40;23.97;;;1.40;99.90;;;;;;5028704;28;20226;-77
2022/01/08 03:16:26;;;;;;;48.13;23.93;;;1.40;99.90;;;;;;5044053;28;20673;-77
2022/01/08 03:18:53;;;;;;;48.60;24.67;;;1.40;99.90;;;;;;5042427;28;20230;-76
2022/01/08 03:21:22;;;;;;;47.30;24.70;;;1.50;99.90;;;;;;5017830;28;20312;-77
2022/01/08 03:23:55;;;;;;;50.77;24.23;;;1.50;99.90;;;;;;5033579;28;20607;-78
2022/01/08 03:26:25;;;;;;;38.83;22.47;;;1.50;99.90;;;;;;5040518;28;20670;-75
2022/01/08 03:28:52;;;;;;;58.97;23.87;;;1.60;99.90;;;;;;5033097;28;20213;-76
2022/01/08 03:31:20;;;;;;;52.07;22.97;;;1.60;99.90;;;;;;5047837;28;20848;-76
2022/01/08 03:33:48;;;;;;;43.17;23.57;;;1.60;99.90;;;;;;5002178;28;20289;-76
2022/01/08 03:36:16;;;;;;;42.90;21.77;;;1.70;99.90;;;;;;5017639;28;20655;-77
2022/01/08 03:38:42;;;;;;;46.87;22.90;;;1.80;99.90;;;;;;5028194;28;20209;-77
2022/01/08 03:41:10;;;;;;;47.70;21.60;;;1.80;99.90;;;;;;5000853;28;20576;-75
2022/01/08 03:43:37;;;;;;;42.87;19.90;;;1.90;99.90;;;;;;5026286;28;20240;-77
2022/01/08 03:46:05;;;;;;;47.20;21.93;;;1.90;99.90;;;;;;5034750;28;20249;-77
2022/01/08 03:48:45;;;;;;;43.73;20.93;;;1.90;99.90;;;;;;5028459;28;20293;-76
2022/01/08 03:51:14;;;;;;;36.30;20.30;;;2.00;99.90;;;;;;5028054;28;20267;-77
2022/01/08 03:53:42;;;;;;;41.90;19.80;;;1.90;99.90;;;;;;5025075;28;20205;-77
2022/01/08 03:56:09;;;;;;;39.43;19.10;;;2.00;99.90;;;;;;5035685;28;20243;-77
2022/01/08 03:58:35;;;;;;;34.83;18.23;;;1.90;99.90;;;;;;5013338;28;20681;-76
2022/01/08 04:01:02;;;;;;;32.37;17.10;;;1.90;99.90;;;;;;5029029;28;20269;-77
2022/01/08 04:03:29;;;;;;;41.40;18.90;;;1.90;99.90;;;;;;4997329;28;20237;-77
2022/01/08 04:05:56;;;;;;;35.80;18.27;;;1.80;99.90;;;;;;5024193;28;20599;-76
2022/01/08 04:08:24;;;;;;;35.50;18.03;;;1.80;99.90;;;;;;5024334;28;20289;-76
2022/01/08 04:10:50;;;;;;;33.20;17.63;;;1.70;99.90;;;;;;5002068;28;20206;-76
2022/01/08 04:13:23;;;;;;;34.97;18.00;;;1.70;99.90;;;;;;5023341;28;20206;-77
2022/01/08 04:15:53;;;;;;;41.27;19.20;;;1.70;99.90;;;;;;5028795;28;20295;-77
2022/01/08 04:18:20;;;;;;;41.83;19.30;;;1.70;99.90;;;;;;5022770;28;20678;-77
2022/01/08 04:21:04;;;;;;;35.83;18.73;;;1.60;99.90;;;;;;4994147;28;20599;-77
2022/01/08 04:23:32;;;;;;;37.13;18.03;;;1.60;99.90;;;;;;5019265;28;20527;-76
2022/01/08 04:25:59;;;;;;;37.77;18.57;;;1.50;99.90;;;;;;5006513;28;20304;-77
2022/01/08 04:28:25;;;;;;;42.40;19.87;;;1.50;99.90;;;;;;5030521;28;20727;-76
2022/01/08 04:30:52;;;;;;;33.73;17.97;;;1.50;99.90;;;;;;5037162;28;20209;-77
2022/01/08 04:33:19;;;;;;;36.13;17.07;;;1.60;99.90;;;;;;5037323;28;20201;-76
2022/01/08 04:35:46;;;;;;;38.83;17.93;;;1.50;99.90;;;;;;5035127;28;20222;-76
2022/01/08 04:38:13;;;;;;;37.40;18.30;;;1.50;99.90;;;;;;5038791;28;20671;-76
2022/01/08 04:40:40;;;;;;;40.33;18.47;;;1.50;99.90;;;;;;5035641;28;20234;-77
2022/01/08 04:43:07;;;;;;;40.30;18.50;;;1.40;99.90;;;;;;5007874;28;20749;-77
2022/01/08 04:45:34;;;;;;;36.70;18.20;;;1.50;99.90;;;;;;5037890;28;20276;-77
2022/01/08 04:48:01;;;;;;;48.93;18.73;;;1.50;99.90;;;;;;5036022;28;20203;-77
2022/01/08 04:50:30;;;;;;;42.80;17.23;;;1.50;99.90;;;;;;5034126;28;20317;-76
2022/01/08 04:52:59;;;;;;;36.70;17.73;;;1.50;99.90;;;;;;5041872;28;20250;-77
2022/01/08 04:55:26;;;;;;;32.93;17.53;;;1.40;99.90;;;;;;5040359;28;20232;-77
2022/01/08 04:57:53;;;;;;;32.57;18.53;;;1.40;99.90;;;;;;5038340;28;20210;-77
2022/01/08 05:00:21;;;;;;;37.60;18.33;;;1.40;99.90;;;;;;5047388;28;20779;-76
2022/01/08 05:02:48;;;;;;;37.90;17.67;;;1.40;99.90;;;;;;5044948;28;20206;-76
2022/01/08 05:05:15;;;;;;;35.07;18.70;;;1.40;99.90;;;;;;5049032;28;20256;-76
2022/01/08 05:07:42;;;;;;;33.70;18.63;;;1.30;99.90;;;;;;5040745;28;20728;-76
2022/01/08 05:10:09;;;;;;;37.00;19.13;;;1.30;99.90;;;;;;5015199;28;20288;-76
2022/01/08 05:12:36;;;;;;;33.53;18.70;;;1.30;99.90;;;;;;5053872;28;20271;-76
2022/01/08 05:15:06;;;;;;;32.93;19.47;;;1.30;99.90;;;;;;5045999;28;20287;-77
2022/01/08 05:17:36;;;;;;;38.23;19.47;;;1.30;99.90;;;;;;5043375;28;20224;-76
2022/01/08 05:20:07;;;;;;;37.47;18.37;;;1.30;99.90;;;;;;5044358;28;20234;-77
2022/01/08 05:22:59;;;;;;;44.73;18.70;;;1.30;99.90;;;;;;5039313;28;20207;-76
2022/01/08 05:25:29;;;;;;;36.17;18.80;;;1.30;99.90;;;;;;5042022;28;20232;-77
2022/01/08 05:27:58;;;;;;;44.27;19.30;;;1.20;99.90;;;;;;5045382;28;20271;-77
2022/01/08 05:30:26;;;;;;;31.80;18.30;;;1.20;99.90;;;;;;5051106;28;20205;-78
2022/01/08 05:32:54;;;;;;;33.40;18.03;;;1.30;99.90;;;;;;5042570;28;20273;-76
2022/01/08 05:35:22;;;;;;;35.97;18.50;;;1.20;99.90;;;;;;5047338;28;20221;-77
2022/01/08 05:37:49;;;;;;;38.90;18.97;;;1.20;99.90;;;;;;5043763;28;20222;-77
2022/01/08 05:40:16;;;;;;;39.97;18.97;;;1.20;99.90;;;;;;5045089;28;20305;-76
2022/01/08 05:42:43;;;;;;;36.63;18.57;;;1.10;99.90;;;;;;5045029;28;20445;-77
2022/01/08 05:45:10;;;;;;;43.20;19.30;;;1.30;99.90;;;;;;5037327;28;20215;-77
2022/01/08 05:47:37;;;;;;;42.37;18.83;;;1.10;99.90;;;;;;5024464;28;20216;-77
2022/01/08 05:50:06;;;;;;;36.97;18.87;;;1.10;99.90;;;;;;5032523;28;20225;-77
2022/01/08 05:52:33;;;;;;;37.03;18.17;;;1.10;99.90;;;;;;5023242;28;20210;-77
2022/01/08 05:55:02;;;;;;;33.30;18.70;;;1.10;99.90;;;;;;5023965;28;20840;-76
2022/01/08 05:57:31;;;;;;;32.57;17.03;;;1.10;99.90;;;;;;5026406;28;20340;-78
2022/01/08 06:00:01;;;;;;;34.63;18.23;;;1.10;99.90;;;;;;5020070;28;20203;-78
2022/01/08 06:02:28;;;;;;;38.13;19.30;;;1.00;99.90;;;;;;5019598;28;20213;-78
2022/01/08 06:04:55;;;;;;;36.20;18.23;;;1.00;99.90;;;;;;5023849;28;20625;-78
2022/01/08 06:07:22;;;;;;;33.37;18.87;;;1.00;99.90;;;;;;5028606;28;20659;-77
2022/01/08 06:09:49;;;;;;;37.47;19.30;;;1.00;99.90;;;;;;5038086;28;20734;-77
2022/01/08 06:12:16;;;;;;;36.37;17.73;;;1.00;99.90;;;;;;5032787;28;20303;-77
2022/01/08 06:14:42;;;;;;;38.43;18.10;;;1.10;99.90;;;;;;5037155;28;20206;-78
2022/01/08 06:17:11;;;;;;;44.63;17.10;;;1.00;99.90;;;;;;5032756;28;20235;-78
2022/01/08 06:19:38;;;;;;;40.50;17.10;;;1.00;99.90;;;;;;5032204;28;20213;-78
2022/01/08 06:22:05;;;;;;;32.73;17.27;;;1.10;99.90;;;;;;5002917;28;20349;-77
2022/01/08 06:24:32;;;;;;;37.87;16.20;;;1.00;99.90;;;;;;5031716;28;20204;-78
2022/01/08 06:26:59;;;;;;;36.83;14.80;;;1.10;99.90;;;;;;5036129;28;20625;-78
2022/01/08 06:29:26;;;;;;;34.97;16.60;;;1.00;99.90;;;;;;5034800;28;20617;-77
2022/01/08 06:31:53;;;;;;;33.87;16.13;;;1.00;99.90;;;;;;5029186;28;20289;-78
2022/01/08 06:34:21;;;;;;;36.93;17.37;;;1.10;99.90;;;;;;4999201;28;20221;-78
2022/01/08 06:36:47;;;;;;;37.57;15.73;;;1.00;99.90;;;;;;5054283;28;20549;-78
2022/01/08 06:39:15;;;;;;;30.87;15.90;;;1.10;99.90;;;;;;5036115;28;20307;-76
2022/01/08 06:41:42;;;;;;;32.80;16.23;;;1.10;99.90;;;;;;5019295;28;20407;-79
2022/01/08 06:44:10;;;;;;;38.20;17.03;;;1.10;99.90;;;;;;5035957;28;20615;-78
2022/01/08 06:46:36;;;;;;;33.77;15.70;;;1.10;99.90;;;;;;5034680;28;20252;-77
2022/01/08 06:49:08;;;;;;;33.13;17.67;;;1.00;99.90;;;;;;5031050;28;20215;-78
2022/01/08 06:51:34;;;;;;;39.00;17.03;;;1.00;99.90;;;;;;5029981;28;20296;-77
2022/01/08 06:54:01;;;;;;;31.13;16.33;;;1.00;99.90;;;;;;5031912;28;20733;-77
2022/01/08 06:56:28;;;;;;;40.90;16.87;;;1.00;99.90;;;;;;5028897;28;20638;-78
2022/01/08 06:58:55;;;;;;;31.70;16.60;;;1.00;99.90;;;;;;5031015;28;20225;-78
2022/01/08 07:01:22;;;;;;;33.27;16.97;;;1.00;99.90;;;;;;5029080;28;20306;-77
2022/01/08 07:03:49;;;;;;;31.97;17.00;;;1.00;99.90;;;;;;5026317;28;20756;-78
2022/01/08 07:06:16;;;;;;;32.70;16.80;;;1.10;99.90;;;;;;5028333;28;20228;-79
2022/01/08 07:08:43;;;;;;;35.93;16.93;;;1.00;99.90;;;;;;5025354;28;20254;-77
2022/01/08 07:11:10;;;;;;;34.80;16.97;;;0.90;99.90;;;;;;5024641;28;20264;-78
2022/01/08 07:13:37;;;;;;;37.30;18.00;;;0.90;99.90;;;;;;5028518;28;20232;-78
2022/01/08 07:16:05;;;;;;;34.40;17.03;;;1.00;99.90;;;;;;5034122;28;20585;-78
2022/01/08 07:18:32;;;;;;;41.60;18.63;;;1.00;99.90;;;;;;4996596;28;20218;-77
2022/01/08 07:20:59;;;;;;;33.43;17.53;;;0.90;99.90;;;;;;5039909;28;20694;-78
2022/01/08 07:23:26;;;;;;;35.30;17.13;;;1.00;99.90;;;;;;5001219;28;20297;-77
2022/01/08 07:25:52;;;;;;;34.87;18.30;;;1.00;99.90;;;;;;5009420;28;20229;-77
2022/01/08 07:28:19;;;;;;;32.83;18.33;;;1.00;99.90;;;;;;5031358;28;20202;-77
2022/01/08 07:30:46;;;;;;;39.67;17.90;;;1.00;99.90;;;;;;5029173;28;20206;-77
2022/01/08 07:33:13;;;;;;;30.93;16.63;;;1.00;99.90;;;;;;5027889;28;20193;-77
2022/01/08 07:35:41;;;;;;;36.03;17.43;;;1.10;99.90;;;;;;5027783;28;20217;-78
2022/01/08 07:38:08;;;;;;;32.20;18.10;;;1.10;99.90;;;;;;5011281;28;20201;-78
2022/01/08 07:40:35;;;;;;;39.50;19.37;;;1.10;99.90;;;;;;5028486;28;20230;-77
2022/01/08 07:43:01;;;;;;;34.03;18.10;;;1.10;99.90;;;;;;5029115;28;20206;-78
2022/01/08 07:45:30;;;;;;;35.10;17.53;;;1.20;99.90;;;;;;5021408;28;20248;-78
2022/01/08 07:47:57;;;;;;;35.50;17.73;;;1.20;99.90;;;;;;5028074;28;20194;-77
2022/01/08 07:50:24;;;;;;;36.33;17.43;;;1.20;99.90;;;;;;5025821;28;20230;-78
2022/01/08 07:52:50;;;;;;;39.00;17.63;;;1.20;99.90;;;;;;5047652;28;20200;-77
2022/01/08 07:55:17;;;;;;;35.17;18.07;;;1.20;99.90;;;;;;5038222;28;20204;-79
2022/01/08 07:57:44;;;;;;;32.67;15.80;;;1.20;99.90;;;;;;5025698;28;20215;-79
2022/01/08 08:00:11;;;;;;;30.90;16.63;;;1.30;99.90;;;;;;5040686;28;20211;-78
2022/01/08 08:02:38;;;;;;;26.23;16.33;;;1.30;99.90;;;;;;5034144;28;20272;-76
2022/01/08 08:05:05;;;;;;;27.73;15.80;;;1.30;99.90;;;;;;5040114;28;20256;-78
2022/01/08 08:07:37;;;;;;;30.50;15.87;;;1.40;99.90;;;;;;5034337;28;20229;-78
2022/01/08 08:10:11;;;;;;;31.93;16.43;;;1.40;99.90;;;;;;5037606;28;20294;-78
2022/01/08 08:12:41;;;;;;;28.43;14.80;;;1.40;99.90;;;;;;5033062;28;20230;-77
2022/01/08 08:15:11;;;;;;;30.67;15.17;;;1.50;99.90;;;;;;5033928;28;20204;-77
2022/01/08 08:17:38;;;;;;;31.27;14.80;;;1.40;99.90;;;;;;5035007;28;20651;-78
2022/01/08 08:20:06;;;;;;;32.00;14.80;;;1.40;99.90;;;;;;5037755;28;20221;-77
2022/01/08 08:22:34;;;;;;;35.87;14.33;;;1.50;99.90;;;;;;5033011;28;20226;-77
2022/01/08 08:25:01;;;;;;;26.57;14.30;;;1.50;99.90;;;;;;5034422;28;20218;-77
2022/01/08 08:27:29;;;;;;;30.90;15.23;;;1.50;99.90;;;;;;5033029;28;20290;-78
2022/01/08 08:29:56;;;;;;;32.27;14.20;;;1.50;99.90;;;;;;5032125;28;20626;-78
2022/01/08 08:32:23;;;;;;;30.57;14.47;;;1.60;99.90;;;;;;5014603;28;20381;-76
2022/01/08 08:34:51;;;;;;;27.40;14.23;;;1.60;99.90;;;;;;5034122;28;20214;-78
2022/01/08 08:37:18;;;;;;;28.80;14.33;;;1.70;99.90;;;;;;5032825;28;20241;-77
2022/01/08 08:39:45;;;;;;;38.80;15.33;;;1.70;99.90;;;;;;5030303;28;20205;-77
2022/01/08 08:42:13;;;;;;;29.77;14.40;;;1.70;99.90;;;;;;5031578;28;20315;-78
2022/01/08 08:44:42;;;;;;;33.97;14.10;;;1.80;99.90;;;;;;4999193;28;20267;-77
2022/01/08 08:47:10;;;;;;;27.53;14.30;;;1.80;99.90;;;;;;5029383;28;20202;-78
2022/01/08 08:49:37;;;;;;;28.20;14.43;;;1.80;99.90;;;;;;5027643;28;20284;-77
2022/01/08 08:52:04;;;;;;;34.43;14.50;;;1.80;99.90;;;;;;5032191;28;20199;-77
2022/01/08 08:54:31;;;;;;;32.47;15.03;;;1.90;99.90;;;;;;5028024;28;20212;-76
2022/01/08 08:56:59;;;;;;;38.30;16.00;;;1.90;99.90;;;;;;5032783;28;20233;-77
2022/01/08 08:59:25;;;;;;;29.43;15.00;;;2.00;99.90;;;;;;5027831;28;20213;-76
2022/01/08 09:01:52;;;;;;;31.57;15.47;;;2.00;99.90;;;;;;5027725;28;20222;-76
2022/01/08 09:04:19;;;;;;;33.93;15.83;;;2.10;99.90;;;;;;5003841;28;20599;-77
2022/01/08 09:06:47;;;;;;;44.80;17.43;;;2.30;99.90;;;;;;5028664;28;20611;-77
2022/01/08 09:09:13;;;;;;;36.07;16.67;;;2.30;99.90;;;;;;5041739;28;20454;-77
2022/01/08 09:11:41;;;;;;;28.83;15.97;;;2.30;99.90;;;;;;5040329;28;20286;-76
2022/01/08 09:14:08;;;;;;;32.10;17.00;;;2.40;99.90;;;;;;5024269;28;20616;-78
2022/01/08 09:16:36;;;;;;;32.73;16.23;;;2.40;99.90;;;;;;5024311;28;20234;-79
2022/01/08 09:19:04;;;;;;;32.43;15.67;;;2.50;99.90;;;;;;5026488;28;20207;-78
2022/01/08 09:21:31;;;;;;;34.40;15.47;;;2.50;99.90;;;;;;5029873;28;20262;-76
2022/01/08 09:23:57;;;;;;;46.13;16.73;;;2.60;99.90;;;;;;5022032;28;20214;-78
2022/01/08 09:26:25;;;;;;;27.83;16.07;;;2.70;99.90;;;;;;5030553;28;20299;-77
2022/01/08 09:28:51;;;;;;;34.53;16.67;;;2.70;99.90;;;;;;5020496;28;20212;-79
2022/01/08 09:31:18;;;;;;;29.33;16.53;;;2.70;99.90;;;;;;5027747;28;20287;-78
2022/01/08 09:33:45;;;;;;;31.77;16.13;;;2.80;99.90;;;;;;5020660;28;20216;-79
2022/01/08 09:36:12;;;;;;;33.10;16.43;;;2.80;99.90;;;;;;5032294;28;20266;-78
2022/01/08 09:38:39;;;;;;;26.73;17.13;;;2.80;99.90;;;;;;5036599;28;20735;-78
2022/01/08 09:41:08;;;;;;;27.97;16.37;;;2.90;99.90;;;;;;5037681;28;20265;-79
2022/01/08 09:43:36;;;;;;;31.70;16.63;;;3.00;99.90;;;;;;5034308;28;20612;-78
2022/01/08 09:46:06;;;;;;;32.17;17.17;;;3.00;99.90;;;;;;5034627;28;20227;-78
2022/01/08 09:48:33;;;;;;;30.07;15.90;;;3.00;99.90;;;;;;5038679;28;20295;-77
2022/01/08 09:51:00;;;;;;;27.10;15.93;;;3.00;99.90;;;;;;5032574;28;21159;-77
2022/01/08 09:53:28;;;;;;;27.67;16.77;;;3.00;99.90;;;;;;5036436;28;20231;-77
2022/01/08 09:55:55;;;;;;;29.07;17.80;;;3.10;99.90;;;;;;5007398;28;20270;-79
2022/01/08 09:58:21;;;;;;;40.03;20.30;;;3.10;99.90;;;;;;5038592;28;20293;-77
2022/01/08 10:00:48;;;;;;;41.17;21.83;;;3.10;99.90;;;;;;5031288;28;20253;-77
2022/01/08 10:03:19;;;;;;;35.60;21.13;;;3.10;99.90;;;;;;5017420;28;20257;-77
2022/01/08 10:05:56;;;;;;;31.87;20.37;;;3.10;99.90;;;;;;5032422;28;20278;-75
2022/01/08 10:08:43;;;;;;;40.80;22.33;;;3.20;99.90;;;;;;5022133;28;20208;-77
2022/01/08 10:11:12;;;;;;;39.00;21.50;;;3.20;99.90;;;;;;5024183;28;20216;-76
2022/01/08 10:13:41;;;;;;;43.70;20.40;;;3.30;99.90;;;;;;5036182;28;20206;-78
2022/01/08 10:19:20;;;;;;;33.83;20.87;;;3.30;99.90;;;;;;5031991;28;20216;-78
2022/01/08 10:21:48;;;;;;;40.93;21.90;;;3.30;99.90;;;;;;5028176;28;20269;-77
2022/01/08 10:24:20;;;;;;;34.00;19.63;;;3.30;99.90;;;;;;5033854;28;20227;-77
2022/01/08 10:26:49;;;;;;;42.60;21.60;;;3.40;99.90;;;;;;5029832;28;20211;-76
2022/01/08 10:29:21;;;;;;;36.00;22.27;;;3.40;99.90;;;;;;5020413;28;20196;-78
2022/01/08 10:31:51;;;;;;;39.17;20.97;;;3.30;99.90;;;;;;5042943;28;20260;-78
2022/01/08 10:34:23;;;;;;;33.33;19.57;;;3.40;99.90;;;;;;5029496;28;20534;-78
2022/01/08 10:37:01;;;;;;;40.37;20.97;;;3.50;99.90;;;;;;4996411;28;20210;-79
2022/01/08 10:39:36;;;;;;;45.07;21.47;;;3.50;99.90;;;;;;5027611;28;20213;-78
2022/01/08 10:42:16;;;;;;;40.77;21.93;;;3.50;99.90;;;;;;5033508;28;20700;-78
2022/01/08 10:44:46;;;;;;;36.80;20.33;;;3.60;99.90;;;;;;5004601;28;20221;-78
2022/01/08 10:47:17;;;;;;;34.63;21.27;;;3.60;99.90;;;;;;5028099;28;20201;-77
2022/01/08 10:50:06;;;;;;;40.83;21.33;;;3.70;99.90;;;;;;5023232;28;20217;-77
2022/01/08 10:52:46;;;;;;;40.90;19.43;;;3.70;99.90;;;;;;5029922;28;20201;-78
2022/01/08 10:55:14;;;;;;;32.27;19.03;;;3.70;99.90;;;;;;5031410;28;20224;-80
2022/01/08 10:57:46;;;;;;;31.73;18.73;;;3.80;99.90;;;;;;5030368;28;20256;-78
2022/01/08 11:00:14;;;;;;;30.37;18.40;;;3.90;99.90;;;;;;5026511;28;20194;-78
2022/01/08 11:02:43;;;;;;;31.27;18.03;;;3.90;99.90;;;;;;5029138;28;20577;-78
2022/01/08 11:05:12;;;;;;;31.93;17.43;;;3.90;99.90;;;;;;5007181;28;20658;-79
2022/01/08 11:07:41;;;;;;;33.00;16.90;;;4.00;99.90;;;;;;5026592;28;20304;-78
2022/01/08 11:10:15;;;;;;;30.13;17.30;;;4.00;99.90;;;;;;5021700;28;20250;-77
2022/01/08 11:12:45;;;;;;;30.20;17.73;;;4.10;99.90;;;;;;5026504;28;20207;-79
2022/01/08 11:17:54;;;;;;;26.27;16.80;;;4.10;99.90;;;;;;5021784;28;20209;-79
2022/01/08 11:20:44;;;;;;;25.17;15.57;;;4.10;99.90;;;;;;5038503;28;20221;-78
2022/01/08 11:23:12;;;;;;;25.80;15.67;;;4.20;99.90;;;;;;5029823;28;20275;-79
2022/01/08 11:25:39;;;;;;;28.40;14.40;;;4.20;99.90;;;;;;5036799;28;20259;-78
2022/01/08 11:28:12;;;;;;;27.20;14.47;;;4.20;99.90;;;;;;5040785;28;20303;-77
2022/01/08 11:30:42;;;;;;;25.73;13.83;;;4.20;99.90;;;;;;5035218;28;20207;-78
2022/01/08 11:33:15;;;;;;;29.07;14.50;;;4.30;99.90;;;;;;5036812;28;20197;-78
2022/01/08 11:35:44;;;;;;;23.07;12.87;;;4.20;99.90;;;;;;5033404;28;20751;-78
2022/01/08 11:38:13;;;;;;;24.00;12.63;;;4.20;99.90;;;;;;5031957;28;20217;-80
2022/01/08 11:40:42;;;;;;;22.50;11.33;;;4.30;99.90;;;;;;5035842;28;20201;-78
2022/01/08 11:43:12;;;;;;;18.70;11.20;;;4.30;99.90;;;;;;5041798;28;20255;-78
2022/01/08 11:45:48;;;;;;;21.90;11.80;;;4.40;99.90;;;;;;5050726;28;20214;-80
2022/01/08 11:48:18;;;;;;;22.20;11.07;;;4.40;99.90;;;;;;5031545;28;20673;-78
2022/01/08 11:50:56;;;;;;;22.23;12.27;;;4.40;99.90;;;;;;5033926;28;20222;-78
2022/01/08 11:53:43;;;;;;;27.03;13.93;;;4.40;99.90;;;;;;5037152;28;20229;-78
2022/01/08 11:56:36;;;;;;;25.53;14.57;;;4.40;99.90;;;;;;5042858;28;20702;-78
2022/01/08 11:59:05;;;;;;;27.50;15.53;;;4.40;99.90;;;;;;5039675;28;20214;-77
2022/01/08 12:01:33;;;;;;;24.80;14.87;;;4.30;99.90;;;;;;5027350;28;20684;-79
2022/01/08 12:04:00;;;;;;;31.57;14.90;;;4.30;99.90;;;;;;5030322;28;20689;-78
2022/01/08 12:06:30;;;;;;;29.50;14.50;;;4.30;99.90;;;;;;5027538;28;20208;-77
2022/01/08 12:09:19;;;;;;;24.80;13.73;;;4.30;99.90;;;;;;5034024;28;20675;-77
2022/01/08 12:11:46;;;;;;;25.90;13.00;;;4.30;99.90;;;;;;5026652;28;20721;-77
2022/01/08 12:14:28;;;;;;;29.00;14.10;;;4.30;99.90;;;;;;5030988;28;20211;-78
2022/01/08 12:17:13;;;;;;;25.30;12.93;;;4.30;99.90;;;;;;5009186;28;20241;-78
2022/01/08 12:19:45;;;;;;;25.50;13.60;;;4.40;99.90;;;;;;5018752;28;20329;-78
2022/01/08 12:22:32;;;;;;;26.53;13.20;;;4.30;99.90;;;;;;5035777;28;20298;-79
2022/01/08 12:25:02;;;;;;;24.37;13.20;;;4.40;99.90;;;;;;5014745;28;20673;-77
2022/01/08 12:27:38;;;;;;;21.53;13.47;;;4.50;99.90;;;;;;5030856;28;20292;-76
2022/01/08 12:30:17;;;;;;;27.97;13.53;;;4.50;99.90;;;;;;5031477;28;20208;-77
2022/01/08 12:32:50;;;;;;;25.03;13.37;;;4.60;99.90;;;;;;5024638;28;21342;-79
2022/01/08 12:37:56;;;;;;;26.93;13.13;;;4.60;99.90;;;;;;5034359;28;20201;-78
2022/01/08 12:40:34;;;;;;;21.73;11.73;;;4.70;99.90;;;;;;5040989;28;20217;-78
2022/01/08 12:43:19;;;;;;;26.13;12.23;;;4.70;99.90;;;;;;5026153;28;20313;-77
2022/01/08 12:45:50;;;;;;;20.77;10.40;;;4.70;99.90;;;;;;5022047;28;20230;-77
2022/01/08 12:48:19;;;;;;;21.43;11.70;;;4.80;99.90;;;;;;5031706;28;20234;-77
2022/01/08 12:50:46;;;;;;;23.87;11.03;;;4.90;99.90;;;;;;5024678;28;20234;-78
2022/01/08 12:53:14;;;;;;;22.90;10.87;;;4.90;99.90;;;;;;5025714;28;20299;-78
2022/01/08 12:55:49;;;;;;;24.70;11.00;;;4.90;99.90;;;;;;5026236;28;20332;-79
2022/01/08 12:58:25;;;;;;;23.67;10.43;;;4.90;99.90;;;;;;5030805;28;20201;-79
2022/01/08 13:00:57;;;;;;;23.37;11.17;;;5.00;99.90;;;;;;5002153;28;20624;-78
2022/01/08 13:03:29;;;;;;;21.70;10.57;;;5.00;99.90;;;;;;5032938;28;20225;-79
2022/01/08 13:06:09;;;;;;;22.77;10.60;;;5.10;99.90;;;;;;5030521;28;20222;-78
2022/01/08 13:08:36;;;;;;;19.90;10.53;;;5.10;99.90;;;;;;5036753;28;20264;-77
2022/01/08 13:11:08;;;;;;;23.70;10.83;;;5.10;99.90;;;;;;5032590;28;20260;-78